Time;durP1;ratioP1;P1;durP2;ratioP2;P2;SDS_P1;SDS_P2;PMS_P1;PMS_P2;Temp;Humidity;BMP_temperature;BMP_pressure;BME280_temperature;BME280_humidity;BME280_pressure;Samples;Min_cycle;Max_cycle;Signal;HPM_P1;HPM_P2
2022/02/05 10:36:29;;;;;;;12.57;2.00;;;6.20;88.20;;;;;;5069660;28;20388;-53
2022/02/05 10:39:09;;;;;;;11.80;2.05;;;6.20;88.00;;;;;;5030175;28;20076;-54
2022/02/05 10:44:24;;;;;;;13.43;2.00;;;6.30;88.10;;;;;;5030163;28;20055;-51
2022/02/05 10:46:51;;;;;;;12.75;2.28;;;6.40;88.00;;;;;;5029005;28;20070;-56
2022/02/05 10:49:17;;;;;;;13.88;2.15;;;6.50;86.80;;;;;;5029514;28;20056;-51
2022/02/05 10:51:45;;;;;;;10.68;1.80;;;6.60;87.00;;;;;;5029758;28;20044;-55
2022/02/05 10:54:28;;;;;;;13.88;2.30;;;6.60;87.60;;;;;;5029766;28;20045;-54
2022/02/05 10:56:55;;;;;;;13.45;3.05;;;6.70;86.80;;;;;;5029660;28;20046;-53
2022/02/05 10:59:39;;;;;;;12.63;2.22;;;6.80;86.40;;;;;;5033442;28;20059;-56
2022/02/05 11:05:15;;;;;;;13.80;1.83;;;7.00;85.80;;;;;;5029665;28;20489;-56
2022/02/05 11:07:43;;;;;;;12.85;2.45;;;7.10;86.20;;;;;;5044624;28;20052;-55
2022/02/05 11:10:30;;;;;;;14.65;2.60;;;7.10;85.50;;;;;;5029501;28;20084;-52
2022/02/05 11:13:14;;;;;;;11.45;2.70;;;7.20;85.60;;;;;;5029431;28;20041;-52
2022/02/05 11:19:01;;;;;;;13.07;2.55;;;7.40;83.60;;;;;;5007775;28;20046;-51
2022/02/05 11:21:47;;;;;;;15.02;2.10;;;7.40;83.00;;;;;;5030808;28;20076;-53
2022/02/05 11:24:14;;;;;;;10.05;2.25;;;7.50;82.10;;;;;;5029458;28;20045;-56
2022/02/05 11:26:40;;;;;;;11.63;1.88;;;7.60;82.10;;;;;;5029159;28;20042;-52
2022/02/05 11:29:07;;;;;;;9.40;2.20;;;7.60;82.00;;;;;;5028944;28;20050;-54
2022/02/05 11:31:42;;;;;;;10.25;2.58;;;7.70;81.80;;;;;;5029083;28;20117;-54
2022/02/05 11:34:09;;;;;;;12.18;2.80;;;7.70;81.70;;;;;;5028998;28;20065;-57
2022/02/05 11:36:43;;;;;;;10.70;2.38;;;7.80;81.30;;;;;;5032925;28;20194;-52
2022/02/05 11:39:10;;;;;;;13.63;2.58;;;7.90;81.60;;;;;;5029189;28;20052;-54
2022/02/05 11:41:37;;;;;;;11.40;2.83;;;7.90;81.50;;;;;;5028801;28;20053;-54
2022/02/05 11:44:04;;;;;;;13.25;2.90;;;8.00;80.60;;;;;;5028893;28;20469;-52
2022/02/05 11:46:32;;;;;;;13.20;2.63;;;8.00;81.40;;;;;;5021667;28;20069;-52
2022/02/05 11:49:02;;;;;;;10.85;2.75;;;8.10;81.00;;;;;;5030629;28;20173;-51
2022/02/05 11:51:29;;;;;;;12.50;1.70;;;8.10;80.90;;;;;;5015463;28;20096;-52
2022/02/05 11:53:56;;;;;;;13.63;2.05;;;8.10;80.30;;;;;;5015881;28;20041;-57
2022/02/05 11:56:22;;;;;;;13.40;2.50;;;8.10;80.20;;;;;;5015417;28;20099;-55
2022/02/05 11:58:49;;;;;;;11.80;2.13;;;8.10;80.40;;;;;;5015662;28;20050;-53
2022/02/05 12:01:16;;;;;;;8.07;2.00;;;8.20;80.40;;;;;;5015693;28;20065;-54
2022/02/05 12:03:42;;;;;;;11.70;2.13;;;8.20;80.20;;;;;;5015793;28;20050;-56
2022/02/05 12:06:10;;;;;;;11.40;2.40;;;8.20;80.00;;;;;;5015857;28;20193;-53
2022/02/05 12:08:37;;;;;;;8.48;1.88;;;8.30;79.80;;;;;;5015671;28;20092;-55
2022/02/05 12:11:04;;;;;;;9.52;1.70;;;8.30;80.10;;;;;;5015535;28;20112;-51
2022/02/05 12:13:37;;;;;;;9.30;2.15;;;8.30;79.70;;;;;;5030527;28;20500;-55
2022/02/05 12:16:09;;;;;;;6.93;1.92;;;8.40;79.80;;;;;;5030796;28;20050;-53
2022/02/05 12:18:35;;;;;;;8.18;1.85;;;8.40;80.30;;;;;;5015345;28;20041;-54
2022/02/05 12:21:09;;;;;;;14.30;2.03;;;8.40;79.90;;;;;;5014301;28;20070;-51
2022/02/05 12:26:25;;;;;;;7.80;1.80;;;8.40;80.50;;;;;;5021158;28;20057;-51
2022/02/05 12:28:52;;;;;;;7.47;1.40;;;8.50;80.10;;;;;;5014536;28;20108;-55
2022/02/05 12:31:21;;;;;;;8.18;2.00;;;8.50;79.60;;;;;;5014593;28;20073;-55
2022/02/05 12:33:51;;;;;;;10.82;1.75;;;8.60;79.30;;;;;;5015055;28;20049;-53
2022/02/05 12:36:18;;;;;;;9.13;1.60;;;8.70;78.70;;;;;;5016210;28;20050;-54
2022/02/05 12:38:44;;;;;;;7.10;1.55;;;8.70;79.70;;;;;;5014202;28;20488;-55
2022/02/05 12:41:11;;;;;;;11.40;1.50;;;8.80;79.40;;;;;;5014220;28;20034;-53
2022/02/05 12:43:38;;;;;;;6.95;1.48;;;8.90;78.30;;;;;;5014317;28;20052;-56
2022/02/05 12:46:11;;;;;;;8.35;1.85;;;8.90;77.90;;;;;;5028636;28;20137;-56
2022/02/05 12:48:37;;;;;;;8.38;1.50;;;8.90;78.10;;;;;;5013840;28;20041;-57
2022/02/05 12:51:04;;;;;;;9.23;1.60;;;8.80;77.90;;;;;;5014958;28;20478;-56
2022/02/05 12:53:31;;;;;;;10.90;2.20;;;8.80;78.30;;;;;;5015310;28;20359;-53
2022/02/05 12:55:58;;;;;;;7.25;1.70;;;8.80;78.50;;;;;;5015236;28;20327;-56
2022/02/05 12:58:26;;;;;;;7.57;1.40;;;8.90;77.40;;;;;;5013821;28;20494;-55
2022/02/05 13:00:52;;;;;;;9.27;1.60;;;8.90;77.10;;;;;;5014500;28;20046;-52
2022/02/05 13:03:19;;;;;;;7.15;1.63;;;9.00;77.40;;;;;;5014560;28;20132;-56
2022/02/05 13:05:46;;;;;;;7.47;1.48;;;9.10;77.30;;;;;;5015632;28;20135;-56
2022/02/05 13:08:14;;;;;;;5.78;1.25;;;9.10;77.10;;;;;;5016412;28;20489;-60
2022/02/05 13:10:41;;;;;;;6.15;1.27;;;9.20;76.40;;;;;;5014474;28;20084;-56
2022/02/05 13:13:07;;;;;;;6.97;1.30;;;9.30;77.10;;;;;;5014213;28;20513;-52
2022/02/05 13:15:34;;;;;;;6.38;2.08;;;9.30;75.90;;;;;;5014389;28;20081;-53
2022/02/05 13:25:48;;;;;;;7.78;1.70;;;9.50;74.20;;;;;;5013939;28;20440;-50
2022/02/05 13:36:00;;;;;;;6.22;1.60;;;9.80;74.00;;;;;;5014422;28;20054;-52
2022/02/05 13:38:31;;;;;;;7.90;2.20;;;9.70;74.10;;;;;;5013845;28;20485;-55
2022/02/05 13:40:58;;;;;;;8.48;1.67;;;9.70;73.80;;;;;;5028904;28;20050;-51
2022/02/05 13:43:30;;;;;;;7.70;1.83;;;9.70;74.20;;;;;;5013747;28;20045;-54
2022/02/05 13:45:58;;;;;;;7.18;1.65;;;9.80;74.70;;;;;;5013600;28;20045;-53
2022/02/05 13:48:24;;;;;;;6.93;1.40;;;9.80;74.10;;;;;;5013491;28;20042;-57
2022/02/05 13:50:51;;;;;;;7.85;2.60;;;9.90;74.40;;;;;;5013728;28;20038;-55
2022/02/05 13:53:18;;;;;;;6.05;1.48;;;9.90;73.20;;;;;;5013634;28;20038;-54
2022/02/05 13:55:45;;;;;;;7.10;1.70;;;9.90;73.70;;;;;;5013596;28;20049;-52
2022/02/05 13:58:12;;;;;;;6.22;1.30;;;10.00;73.50;;;;;;5013386;28;20049;-55
2022/02/05 14:00:39;;;;;;;6.63;1.70;;;10.10;73.40;;;;;;5013453;28;20489;-54
2022/02/05 14:03:08;;;;;;;8.00;1.80;;;10.20;73.40;;;;;;5013396;28;20387;-52
2022/02/05 14:05:35;;;;;;;6.95;1.33;;;10.20;72.40;;;;;;5013334;28;20038;-53
2022/02/05 14:08:03;;;;;;;5.03;1.40;;;10.20;72.90;;;;;;5016177;28;20046;-54
2022/02/05 14:10:39;;;;;;;9.35;1.48;;;10.30;72.70;;;;;;5013133;28;20402;-57
2022/02/05 14:13:06;;;;;;;7.10;1.80;;;10.30;72.70;;;;;;5013430;28;20525;-52
2022/02/05 14:15:33;;;;;;;6.03;1.60;;;10.30;73.00;;;;;;5013316;28;20065;-54
2022/02/05 14:17:59;;;;;;;7.03;1.52;;;10.20;73.00;;;;;;5028279;28;20152;-56
2022/02/05 14:20:26;;;;;;;8.43;1.98;;;10.20;73.10;;;;;;5013295;28;20085;-53
2022/02/05 14:22:53;;;;;;;6.18;1.40;;;10.20;73.60;;;;;;5013055;28;20044;-54
2022/02/05 14:25:28;;;;;;;10.32;1.80;;;10.20;73.40;;;;;;5028373;28;20104;-55
2022/02/05 14:28:02;;;;;;;8.38;1.63;;;10.20;73.60;;;;;;5012922;28;20109;-53
2022/02/05 14:30:30;;;;;;;6.55;1.33;;;10.10;73.20;;;;;;5013055;28;20401;-55
2022/02/05 14:33:01;;;;;;;6.20;1.58;;;10.10;74.00;;;;;;5013247;28;20038;-55
2022/02/05 14:35:48;;;;;;;5.45;1.20;;;10.10;73.60;;;;;;5021677;28;20413;-54
2022/02/05 14:41:00;;;;;;;5.57;1.52;;;10.00;73.80;;;;;;5012956;28;20075;-52
2022/02/05 14:43:26;;;;;;;6.90;1.67;;;10.00;74.20;;;;;;5013062;28;20520;-56
2022/02/05 14:45:53;;;;;;;8.05;1.55;;;9.90;74.40;;;;;;5012943;28;20042;-54
2022/02/05 14:48:20;;;;;;;7.20;1.70;;;9.90;74.30;;;;;;5012913;28;20075;-52
2022/02/05 14:50:49;;;;;;;6.32;1.33;;;9.90;74.60;;;;;;5013066;28;20038;-53
2022/02/05 14:53:15;;;;;;;5.65;1.45;;;9.90;74.40;;;;;;5012795;28;20074;-56
2022/02/05 14:55:42;;;;;;;7.82;1.50;;;9.90;74.60;;;;;;5027989;28;20037;-53
2022/02/05 14:58:09;;;;;;;6.40;1.58;;;9.90;74.90;;;;;;5012912;28;20037;-51
2022/02/05 15:00:36;;;;;;;5.28;1.40;;;10.00;74.20;;;;;;5012851;28;20396;-51
2022/02/05 15:03:04;;;;;;;6.65;1.73;;;10.00;73.50;;;;;;5012731;28;20088;-55
2022/02/05 15:05:31;;;;;;;10.23;1.90;;;10.00;73.80;;;;;;5012679;28;20409;-55
2022/02/05 15:07:58;;;;;;;6.15;1.75;;;10.00;74.20;;;;;;5028866;28;20034;-52
2022/02/05 15:10:24;;;;;;;5.05;1.40;;;10.10;73.90;;;;;;5012688;28;20042;-53
2022/02/05 15:12:51;;;;;;;8.20;2.17;;;10.10;74.00;;;;;;5027798;28;20034;-51
2022/02/05 15:15:23;;;;;;;9.18;1.45;;;10.10;73.80;;;;;;5012678;28;20042;-52
2022/02/05 15:17:50;;;;;;;5.70;1.13;;;10.10;74.10;;;;;;5012748;28;20053;-54
2022/02/05 15:20:19;;;;;;;7.20;1.52;;;10.10;74.10;;;;;;5027876;28;20076;-51
2022/02/05 15:22:46;;;;;;;8.82;1.83;;;10.10;74.40;;;;;;5015709;28;20045;-53
2022/02/05 15:25:12;;;;;;;3.53;1.33;;;10.10;74.40;;;;;;5016290;28;20084;-54
2022/02/05 15:27:39;;;;;;;8.57;1.45;;;10.10;73.60;;;;;;5016367;28;20046;-52
2022/02/05 15:30:06;;;;;;;6.55;1.70;;;10.10;74.50;;;;;;5016161;28;20038;-53
2022/02/05 15:32:33;;;;;;;5.90;1.65;;;10.10;74.40;;;;;;5016350;28;20042;-50
2022/02/05 15:35:01;;;;;;;8.82;1.85;;;10.10;73.70;;;;;;5016088;28;20053;-48
2022/02/05 15:37:28;;;;;;;9.18;1.70;;;10.10;74.10;;;;;;5019735;28;20042;-52
2022/02/05 15:45:12;;;;;;;6.63;1.98;;;10.10;74.40;;;;;;5016426;28;20046;-55
2022/02/05 15:47:40;;;;;;;5.20;1.58;;;10.00;74.30;;;;;;5015950;28;20065;-55
2022/02/05 15:50:09;;;;;;;6.70;1.60;;;10.00;74.80;;;;;;5016088;28;20038;-52
2022/02/05 15:52:35;;;;;;;8.27;1.88;;;10.00;75.40;;;;;;5015866;28;20441;-52
2022/02/05 15:55:03;;;;;;;6.07;1.73;;;10.00;75.60;;;;;;5015935;28;20037;-53
2022/02/05 15:58:21;;;;;;;10.48;2.22;;;10.00;75.60;;;;;;5015777;28;20108;-51
2022/02/05 16:00:27;;;;;;;7.72;2.10;;;10.00;75.50;;;;;;5018384;28;20072;-57
2022/02/05 16:02:55;;;;;;;9.05;1.67;;;10.00;75.60;;;;;;5016223;28;20042;-55
2022/02/05 16:05:21;;;;;;;6.72;1.73;;;9.90;75.90;;;;;;5016020;28;20042;-53
2022/02/05 16:07:48;;;;;;;10.73;1.88;;;9.90;75.80;;;;;;5018673;28;20088;-56
2022/02/05 16:10:16;;;;;;;8.43;1.65;;;9.80;76.20;;;;;;5016858;28;20515;-52
2022/02/05 16:12:45;;;;;;;6.20;1.67;;;9.80;76.20;;;;;;5015246;28;20040;-51
2022/02/05 16:15:13;;;;;;;6.47;1.98;;;9.80;76.60;;;;;;5015378;28;20068;-51
2022/02/05 16:17:40;;;;;;;8.48;1.95;;;9.80;76.60;;;;;;5015268;28;20042;-56
2022/02/05 16:20:07;;;;;;;8.10;1.80;;;9.70;76.60;;;;;;5015328;28;20048;-53
2022/02/05 16:22:37;;;;;;;7.70;1.67;;;9.70;76.80;;;;;;5015194;28;20116;-55
2022/02/05 16:25:04;;;;;;;10.82;2.08;;;9.70;77.30;;;;;;5030122;28;20046;-53
2022/02/05 16:27:35;;;;;;;8.65;2.00;;;9.60;77.60;;;;;;5014862;28;20092;-52
2022/02/05 16:30:02;;;;;;;8.52;1.88;;;9.60;77.70;;;;;;5015002;28;20049;-52
2022/02/05 16:32:29;;;;;;;8.75;1.83;;;9.60;78.10;;;;;;5014790;28;20092;-53
2022/02/05 16:34:57;;;;;;;7.32;2.05;;;9.70;78.10;;;;;;5014682;28;20057;-51
2022/02/05 16:37:25;;;;;;;10.30;1.90;;;9.70;78.30;;;;;;5014708;28;20064;-53
2022/02/05 16:39:56;;;;;;;12.43;2.40;;;9.70;78.30;;;;;;5014961;28;20041;-56
2022/02/05 16:42:23;;;;;;;7.50;2.35;;;9.70;78.50;;;;;;5008461;28;20049;-51
2022/02/05 16:44:50;;;;;;;10.90;2.47;;;9.70;78.70;;;;;;5008271;28;20096;-53
2022/02/05 16:47:16;;;;;;;10.18;2.22;;;9.70;78.60;;;;;;5014571;28;20049;-53
2022/02/05 16:49:43;;;;;;;9.65;2.35;;;9.70;78.50;;;;;;5014355;28;20472;-53
2022/02/05 16:52:10;;;;;;;9.30;2.53;;;9.70;78.70;;;;;;5014354;28;20060;-52
2022/02/05 16:54:37;;;;;;;8.25;2.20;;;9.70;78.70;;;;;;5014201;28;20092;-57
2022/02/05 16:57:04;;;;;;;8.23;2.00;;;9.70;78.90;;;;;;5014216;28;20068;-54
2022/02/05 16:59:30;;;;;;;15.65;2.85;;;9.70;79.20;;;;;;5014305;28;20050;-54
2022/02/05 17:01:57;;;;;;;12.40;4.25;;;9.70;79.50;;;;;;5014133;28;20042;-51
2022/02/05 17:04:24;;;;;;;14.05;2.90;;;9.70;80.50;;;;;;5014245;28;20077;-51
2022/02/05 17:06:51;;;;;;;13.02;3.28;;;9.60;81.40;;;;;;5013964;28;20049;-49
2022/02/05 17:09:17;;;;;;;15.85;3.15;;;9.60;82.50;;;;;;5017226;28;20067;-49
2022/02/05 17:11:44;;;;;;;14.48;3.30;;;9.60;83.30;;;;;;5014202;28;20038;-51
2022/02/05 17:14:11;;;;;;;13.68;3.30;;;9.50;83.70;;;;;;5014625;28;20098;-57
2022/02/05 17:16:38;;;;;;;11.15;3.55;;;9.50;83.80;;;;;;5014070;28;20100;-54
2022/02/05 17:19:05;;;;;;;17.73;3.30;;;9.40;84.10;;;;;;5014157;28;20092;-52
2022/02/05 17:21:32;;;;;;;12.60;3.30;;;9.40;84.40;;;;;;5013815;28;20072;-54
2022/02/05 17:23:59;;;;;;;14.50;3.65;;;9.40;84.70;;;;;;5014004;28;20100;-52
2022/02/05 17:26:28;;;;;;;15.55;3.47;;;9.40;85.30;;;;;;5028870;28;20079;-52
2022/02/05 17:28:54;;;;;;;15.50;4.18;;;9.30;85.90;;;;;;5013751;28;20042;-52
2022/02/05 17:31:21;;;;;;;15.70;3.47;;;9.20;86.20;;;;;;5013668;28;20516;-51
2022/02/05 17:33:53;;;;;;;13.07;3.42;;;9.20;86.70;;;;;;5013738;28;20088;-53
2022/02/05 17:36:21;;;;;;;13.38;2.85;;;9.20;87.00;;;;;;5013552;28;20520;-50
2022/02/05 17:38:47;;;;;;;19.25;3.60;;;9.10;87.30;;;;;;5018872;28;20080;-54
2022/02/05 17:41:14;;;;;;;13.25;3.47;;;9.00;87.50;;;;;;5013527;28;20053;-53
2022/02/05 17:43:42;;;;;;;14.23;3.33;;;9.00;87.80;;;;;;5013145;28;20050;-56
2022/02/05 17:46:09;;;;;;;13.60;3.33;;;9.00;88.00;;;;;;5013403;28;20425;-49
2022/02/05 17:48:36;;;;;;;15.90;3.42;;;9.00;88.10;;;;;;5013513;28;20109;-55
2022/02/05 17:51:03;;;;;;;14.27;3.08;;;8.90;88.20;;;;;;5028474;28;20053;-50
2022/02/05 17:53:30;;;;;;;16.17;3.63;;;8.90;88.60;;;;;;5013561;28;20034;-56
2022/02/05 17:55:57;;;;;;;12.60;2.88;;;8.90;88.90;;;;;;5013374;28;20521;-55
2022/02/05 17:58:25;;;;;;;18.92;4.03;;;8.90;89.00;;;;;;5013250;28;20436;-53
2022/02/05 18:00:51;;;;;;;14.80;4.30;;;9.00;89.00;;;;;;5013301;28;20037;-56
2022/02/05 18:03:18;;;;;;;13.15;3.30;;;8.90;89.00;;;;;;5013353;28;20042;-54
2022/02/05 18:05:52;;;;;;;14.60;3.75;;;8.90;89.30;;;;;;5013113;28;20045;-55
2022/02/05 18:15:59;;;;;;;14.68;3.05;;;9.00;89.90;;;;;;5013080;28;20053;-52
2022/02/05 18:18:26;;;;;;;14.15;3.03;;;9.00;90.00;;;;;;5013198;28;20113;-53
2022/02/05 18:20:53;;;;;;;17.92;3.67;;;9.00;90.00;;;;;;5013209;28;20042;-54
2022/02/05 18:23:20;;;;;;;17.10;3.22;;;9.00;90.00;;;;;;5013047;28;20038;-56
2022/02/05 18:25:46;;;;;;;17.80;3.45;;;9.00;90.00;;;;;;5013007;28;20440;-51
2022/02/05 18:28:13;;;;;;;11.98;3.10;;;9.00;90.00;;;;;;5012599;28;20121;-56
2022/02/05 18:30:40;;;;;;;16.55;5.05;;;9.00;90.00;;;;;;5012954;28;20064;-56
2022/02/05 18:33:07;;;;;;;16.52;5.05;;;8.90;90.10;;;;;;5027972;28;20498;-54
2022/02/05 18:35:34;;;;;;;18.60;3.78;;;8.90;90.10;;;;;;5012832;28;20440;-52
2022/02/05 18:38:05;;;;;;;21.95;4.30;;;9.00;90.10;;;;;;5016784;28;20052;-52
2022/02/05 18:40:32;;;;;;;14.45;3.40;;;9.00;89.90;;;;;;5012800;28;20050;-51
2022/02/05 18:42:59;;;;;;;14.95;3.60;;;9.10;89.80;;;;;;5012990;28;20049;-55
2022/02/05 18:45:27;;;;;;;14.73;3.15;;;9.10;89.50;;;;;;5012876;28;20045;-55
2022/02/05 18:47:54;;;;;;;17.27;3.20;;;9.10;89.40;;;;;;5012586;28;20061;-52
2022/02/05 18:50:21;;;;;;;17.40;3.83;;;9.10;89.20;;;;;;5012793;28;20144;-53
2022/02/05 18:52:47;;;;;;;17.88;4.00;;;9.10;89.00;;;;;;5012712;28;20046;-55
2022/02/05 18:55:14;;;;;;;26.77;4.43;;;9.10;88.80;;;;;;5012633;28;20096;-54
2022/02/05 18:57:41;;;;;;;22.25;4.70;;;9.10;89.10;;;;;;5016014;28;20081;-50
2022/02/05 19:00:12;;;;;;;20.58;4.00;;;9.10;89.20;;;;;;5016766;28;20073;-52
2022/02/05 19:15:56;;;;;;;14.05;3.42;;;9.10;88.70;;;;;;5016701;28;20108;-52
2022/02/05 19:18:22;;;;;;;25.10;3.88;;;9.20;88.50;;;;;;5016335;28;20038;-54
2022/02/05 19:20:50;;;;;;;13.50;3.80;;;9.20;88.50;;;;;;5016235;28;20489;-54
2022/02/05 19:23:17;;;;;;;16.10;4.28;;;9.20;88.50;;;;;;5016406;28;20409;-53
2022/02/05 19:25:43;;;;;;;15.63;3.90;;;9.20;88.60;;;;;;5016048;28;20064;-54
2022/02/05 19:28:10;;;;;;;18.88;3.63;;;9.20;88.90;;;;;;5031302;28;20423;-54
2022/02/05 19:30:38;;;;;;;20.08;4.40;;;9.20;89.00;;;;;;5016154;28;20508;-54
2022/02/05 19:33:04;;;;;;;20.15;3.97;;;9.20;89.60;;;;;;5016131;28;20473;-50
2022/02/05 19:35:31;;;;;;;12.75;3.95;;;9.30;89.10;;;;;;5015872;28;20077;-56
2022/02/05 19:37:58;;;;;;;21.50;4.60;;;9.30;89.10;;;;;;5017966;28;20049;-55
2022/02/05 19:40:25;;;;;;;16.80;4.00;;;9.30;89.00;;;;;;5016382;28;20120;-56
2022/02/05 19:42:52;;;;;;;18.35;3.75;;;9.30;88.80;;;;;;5016133;28;20501;-56
2022/02/05 19:45:25;;;;;;;13.57;3.30;;;9.30;88.80;;;;;;5015895;28;20080;-53
2022/02/05 19:47:55;;;;;;;17.70;4.03;;;9.30;88.80;;;;;;5015772;28;20045;-52
2022/02/05 19:50:22;;;;;;;18.38;3.67;;;9.30;88.70;;;;;;5031294;28;20061;-57
2022/02/05 19:52:49;;;;;;;15.40;3.95;;;9.40;88.40;;;;;;5015748;28;20046;-54
2022/02/05 19:55:17;;;;;;;26.67;3.65;;;9.40;88.20;;;;;;5015780;28;20444;-57
2022/02/05 19:57:44;;;;;;;17.85;3.72;;;9.40;88.50;;;;;;5015728;28;20088;-54
2022/02/05 20:00:10;;;;;;;19.65;4.10;;;9.30;88.40;;;;;;5030886;28;20046;-56
2022/02/05 20:02:41;;;;;;;18.48;4.07;;;9.40;88.10;;;;;;5015802;28;20053;-55
2022/02/05 20:05:11;;;;;;;18.48;3.42;;;9.40;88.10;;;;;;5015594;28;20069;-53
2022/02/05 20:10:08;;;;;;;17.60;3.10;;;9.40;87.70;;;;;;5017138;28;20042;-55
2022/02/05 20:12:35;;;;;;;13.98;3.03;;;9.50;87.90;;;;;;5015486;28;20042;-52
2022/02/05 20:15:02;;;;;;;14.52;3.20;;;9.50;88.10;;;;;;5015361;28;20409;-50
2022/02/05 20:17:32;;;;;;;16.90;4.05;;;9.50;88.00;;;;;;5030103;28;20049;-49
2022/02/05 20:19:59;;;;;;;12.77;3.10;;;9.50;87.90;;;;;;5030538;28;20045;-52
2022/02/05 20:22:25;;;;;;;17.88;3.47;;;9.50;87.90;;;;;;5015150;28;20053;-53
2022/02/05 20:24:52;;;;;;;18.40;3.50;;;9.50;88.10;;;;;;5015077;28;20046;-51
2022/02/05 20:27:19;;;;;;;9.50;2.67;;;9.50;87.80;;;;;;5014920;28;20042;-53
2022/02/05 20:29:46;;;;;;;15.00;3.10;;;9.60;87.90;;;;;;5015017;28;20111;-54
2022/02/05 20:32:15;;;;;;;17.10;3.65;;;9.50;87.60;;;;;;5015120;28;20489;-51
2022/02/05 20:34:41;;;;;;;13.75;3.70;;;9.50;87.40;;;;;;5014869;28;20533;-52
2022/02/05 20:37:08;;;;;;;18.58;3.47;;;9.60;87.40;;;;;;5016277;28;20050;-51
2022/02/05 20:39:35;;;;;;;10.50;2.80;;;9.50;87.40;;;;;;5016604;28;20108;-51
2022/02/05 20:42:02;;;;;;;16.58;3.67;;;9.60;87.80;;;;;;5029729;28;20401;-51
2022/02/05 20:44:29;;;;;;;15.05;3.55;;;9.60;87.50;;;;;;5030150;28;20497;-55
2022/02/05 20:46:57;;;;;;;12.60;3.17;;;9.60;87.70;;;;;;5014716;28;20038;-49
2022/02/05 20:49:25;;;;;;;16.38;3.50;;;9.70;87.60;;;;;;5014908;28;20080;-51
2022/02/05 20:51:52;;;;;;;12.90;3.30;;;9.70;87.60;;;;;;5014820;28;20046;-55
2022/02/05 20:54:31;;;;;;;18.73;3.83;;;9.70;87.70;;;;;;5014970;28;20034;-57
2022/02/05 20:56:58;;;;;;;20.77;5.22;;;9.70;87.80;;;;;;5014538;28;20072;-54
2022/02/05 20:59:25;;;;;;;16.40;3.25;;;9.70;87.80;;;;;;5014608;28;20045;-58
2022/02/05 21:01:52;;;;;;;14.15;3.38;;;9.70;87.60;;;;;;5014478;28;20052;-55
2022/02/05 21:04:19;;;;;;;13.65;3.42;;;9.70;87.50;;;;;;5014273;28;20096;-49
2022/02/05 21:06:46;;;;;;;29.13;11.45;;;9.70;87.40;;;;;;5014475;28;20482;-56
2022/02/05 21:09:14;;;;;;;18.35;4.03;;;9.70;87.30;;;;;;5014480;28;20042;-51
2022/02/05 21:11:46;;;;;;;23.35;7.25;;;9.70;87.20;;;;;;5014435;28;20355;-54
2022/02/05 21:14:12;;;;;;;19.35;4.53;;;9.70;87.00;;;;;;5013899;28;20088;-52
2022/02/05 21:16:39;;;;;;;13.52;3.00;;;9.70;86.90;;;;;;5013854;28;20450;-52
2022/02/05 21:19:06;;;;;;;22.77;5.28;;;9.70;86.70;;;;;;5028321;28;20141;-49
2022/02/05 21:21:33;;;;;;;13.70;4.40;;;9.70;86.70;;;;;;5014029;28;20500;-55
2022/02/05 21:24:01;;;;;;;15.60;2.63;;;9.70;85.90;;;;;;5014071;28;20065;-55
2022/02/05 21:26:29;;;;;;;11.13;2.90;;;9.80;85.90;;;;;;5014008;28;20049;-54
2022/02/05 21:28:57;;;;;;;13.80;3.33;;;9.80;86.50;;;;;;5029262;28;20088;-55
2022/02/05 21:36:42;;;;;;;10.68;3.50;;;9.80;85.50;;;;;;5013670;28;20060;-53
2022/02/05 21:39:09;;;;;;;12.25;3.33;;;9.80;86.20;;;;;;5016123;28;20143;-52
2022/02/05 21:41:36;;;;;;;10.20;3.10;;;9.90;85.80;;;;;;5028891;28;20120;-54
2022/02/05 21:44:02;;;;;;;17.45;3.53;;;9.90;85.30;;;;;;5028872;28;20095;-57
2022/02/05 21:46:29;;;;;;;16.70;3.22;;;9.90;85.20;;;;;;5013591;28;20486;-55
2022/02/05 21:48:56;;;;;;;11.70;3.28;;;9.90;85.30;;;;;;5028784;28;20068;-54
2022/02/05 21:51:29;;;;;;;15.07;3.30;;;9.90;85.10;;;;;;5013683;28;20034;-57
2022/02/05 21:53:57;;;;;;;14.75;3.17;;;10.00;84.90;;;;;;5013615;28;20042;-56
2022/02/05 21:59:05;;;;;;;14.98;3.17;;;10.00;84.40;;;;;;5013579;28;20049;-54
2022/02/05 22:01:32;;;;;;;15.30;2.90;;;10.00;84.30;;;;;;5028888;28;20050;-52
2022/02/05 22:03:59;;;;;;;15.65;3.05;;;10.00;84.30;;;;;;5013492;28;20096;-50
2022/02/05 22:06:45;;;;;;;12.10;2.83;;;10.00;84.40;;;;;;5013257;28;20050;-55
2022/02/05 22:09:13;;;;;;;15.13;3.00;;;10.00;84.40;;;;;;5018075;28;20085;-53
2022/02/05 22:11:40;;;;;;;13.93;3.25;;;10.00;84.60;;;;;;5013309;28;20397;-52
2022/02/05 22:14:06;;;;;;;16.30;3.67;;;10.00;84.40;;;;;;5013199;28;20096;-54
2022/02/05 22:16:33;;;;;;;16.98;3.45;;;10.10;83.90;;;;;;5013078;28;20037;-51
2022/02/05 22:19:00;;;;;;;15.77;3.20;;;10.10;84.10;;;;;;5013259;28;20493;-52
2022/02/05 22:21:26;;;;;;;14.40;2.92;;;10.10;83.70;;;;;;5028296;28;20046;-53
2022/02/05 22:23:53;;;;;;;13.75;2.83;;;10.10;84.50;;;;;;5013308;28;20046;-54
2022/02/05 22:26:20;;;;;;;10.10;2.88;;;10.10;84.00;;;;;;5013028;28;20046;-51
2022/02/05 22:28:48;;;;;;;9.60;3.10;;;10.10;84.10;;;;;;5012707;28;20045;-54
2022/02/05 22:31:15;;;;;;;12.85;2.92;;;10.10;84.10;;;;;;5012811;28;20108;-52
2022/02/05 22:33:45;;;;;;;12.77;3.45;;;10.10;83.90;;;;;;5012830;28;20338;-54
2022/02/05 22:36:11;;;;;;;14.90;3.88;;;10.10;84.00;;;;;;5012630;28;20054;-53
2022/02/05 22:38:38;;;;;;;12.20;3.58;;;10.10;84.10;;;;;;5013349;28;20567;-51
2022/02/05 22:41:05;;;;;;;11.32;2.25;;;10.10;84.20;;;;;;5012934;28;20061;-54
2022/02/05 22:43:36;;;;;;;13.05;2.40;;;10.20;84.10;;;;;;5012817;28;20100;-52
2022/02/05 22:46:03;;;;;;;8.85;2.80;;;10.20;84.10;;;;;;5012814;28;20466;-56
2022/02/05 22:48:30;;;;;;;11.25;3.17;;;10.20;84.60;;;;;;5012848;28;20045;-54
2022/02/05 22:50:57;;;;;;;16.85;2.92;;;10.20;85.00;;;;;;5012704;28;20046;-51
2022/02/05 22:53:26;;;;;;;14.98;2.63;;;10.20;85.10;;;;;;5012824;28;20038;-55
2022/02/05 22:55:53;;;;;;;10.18;2.40;;;10.10;85.10;;;;;;5012782;28;20088;-52
2022/02/05 22:58:19;;;;;;;11.85;2.38;;;10.20;85.00;;;;;;5027703;28;20540;-50
2022/02/05 23:00:46;;;;;;;10.27;2.72;;;10.20;85.20;;;;;;5012624;28;20172;-53
2022/02/05 23:03:13;;;;;;;13.07;2.35;;;10.20;85.60;;;;;;5012696;28;20054;-53
2022/02/05 23:05:40;;;;;;;15.50;2.75;;;10.10;85.50;;;;;;5028046;28;20042;-52
2022/02/05 23:08:07;;;;;;;16.08;3.03;;;10.10;85.60;;;;;;5030493;28;20042;-55
2022/02/05 23:10:54;;;;;;;12.60;2.90;;;10.10;85.60;;;;;;5012905;28;20092;-54
2022/02/05 23:43:06;;;;;;;14.07;3.00;;;10.20;85.10;;;;;;5014367;28;20045;-56
2022/02/05 23:45:36;;;;;;;15.63;3.15;;;10.20;85.20;;;;;;5016384;28;20046;-51
2022/02/05 23:48:06;;;;;;;15.07;2.70;;;10.20;84.90;;;;;;5031027;28;20406;-56
2022/02/05 23:50:34;;;;;;;12.60;3.15;;;10.20;85.00;;;;;;5016133;28;20045;-54
2022/02/05 23:53:01;;;;;;;11.98;2.30;;;10.20;85.30;;;;;;5015975;28;20405;-58
2022/02/05 23:55:27;;;;;;;10.27;2.75;;;10.20;85.00;;;;;;5015598;28;20073;-53
2022/02/05 23:57:55;;;;;;;11.63;2.60;;;10.20;84.90;;;;;;5015746;28;20113;-56
